Terminal Aerodrome Forecast
Issued by NWS

Home | Current Version | Previous Version | Text Only | Print | Product List | Glossary On
Versions: 1 2 3 4 5 6 7 8 9 10 11 12 13 14 15 16 17
000
FTUS43 KTOP 222300
TAFFOE
TAF
KFOE 222331Z 2300/2324 12007KT P6SM OVC050
     FM231500 13010KT P6SM SHRA SCT015 OVC025
     FM231900 13013KT P6SM SHRA BKN015 OVC025
     FM232200 14013KT 4SM RA VCTS BKN015CB OVC025=

USA.gov is the U.S. government's official web portal to all federal, state and local government web resources and services.